Time;durP1;ratioP1;P1;durP2;ratioP2;P2;SDS_P1;SDS_P2;PMS_P1;PMS_P2;Temp;Humidity;BMP_temperature;BMP_pressure;BME280_temperature;BME280_humidity;BME280_pressure;Samples;Min_cycle;Max_cycle;Signal;HPM_P1;HPM_P2
2022/01/14 00:00:51;;;;;;;3.17;1.60;;;18.20;78.80;;;;;;10575408;28;20054;-74
2022/01/14 00:05:53;;;;;;;3.55;1.75;;;18.10;78.80;;;;;;10555630;28;20050;-74
2022/01/14 00:10:56;;;;;;;2.85;1.63;;;18.10;78.90;;;;;;10585457;28;20085;-74
2022/01/14 00:15:58;;;;;;;3.17;1.70;;;18.00;78.90;;;;;;10578186;28;20048;-74
2022/01/14 00:21:01;;;;;;;2.97;1.80;;;18.00;78.90;;;;;;10542528;28;20052;-74
2022/01/14 00:31:44;;;;;;;3.60;1.80;;;17.90;79.00;;;;;;10555306;28;20028;-75
2022/01/14 00:36:45;;;;;;;2.75;1.85;;;17.90;79.10;;;;;;10553495;28;20059;-74
2022/01/14 00:41:47;;;;;;;2.72;1.75;;;17.80;79.10;;;;;;10556133;28;20048;-75
2022/01/14 00:46:48;;;;;;;3.85;1.73;;;17.70;79.10;;;;;;10543163;28;20040;-74
2022/01/14 00:51:50;;;;;;;3.50;1.75;;;17.70;79.10;;;;;;10577166;28;20089;-74
2022/01/14 00:57:13;;;;;;;2.67;1.75;;;17.70;79.20;;;;;;10546752;28;20124;-75
2022/01/14 01:02:14;;;;;;;3.35;1.88;;;17.60;79.20;;;;;;10555335;28;20097;-74
2022/01/14 01:07:17;;;;;;;2.17;1.52;;;17.60;79.30;;;;;;10564441;28;20043;-74
2022/01/14 01:12:31;;;;;;;2.85;1.45;;;17.60;79.30;;;;;;10567310;28;20094;-75
2022/01/14 01:17:33;;;;;;;2.95;1.48;;;17.50;79.30;;;;;;10552857;28;20063;-74
2022/01/14 01:22:34;;;;;;;2.25;1.42;;;17.50;79.30;;;;;;10551883;28;20047;-74
2022/01/14 01:27:39;;;;;;;2.78;1.60;;;17.50;79.40;;;;;;10550491;28;20552;-74
2022/01/14 01:32:40;;;;;;;2.22;1.58;;;17.40;79.40;;;;;;10555828;28;20055;-74
2022/01/14 01:37:41;;;;;;;2.92;1.65;;;17.40;79.40;;;;;;10560181;28;20093;-74
2022/01/14 01:42:43;;;;;;;1.90;1.30;;;17.30;79.40;;;;;;10561391;28;20051;-74
2022/01/14 01:47:49;;;;;;;3.53;1.80;;;17.30;79.50;;;;;;10564807;28;20044;-74
2022/01/14 01:52:50;;;;;;;3.80;1.85;;;17.30;79.50;;;;;;10558798;28;20044;-74
2022/01/14 01:57:52;;;;;;;3.60;1.60;;;17.20;79.50;;;;;;10575657;28;20047;-73
2022/01/14 02:02:54;;;;;;;2.72;1.50;;;17.20;79.50;;;;;;10573730;28;20058;-74
2022/01/14 02:07:56;;;;;;;2.45;1.60;;;17.20;79.60;;;;;;10562767;27;20106;-74
2022/01/14 02:12:57;;;;;;;1.90;1.30;;;17.10;79.60;;;;;;10551768;28;20056;-73
2022/01/14 02:23:31;;;;;;;2.63;1.40;;;17.10;79.70;;;;;;10479912;28;20121;-73
2022/01/14 02:28:32;;;;;;;2.85;1.60;;;17.00;79.60;;;;;;10579619;28;20078;-73
2022/01/14 02:33:34;;;;;;;3.15;1.50;;;17.00;79.70;;;;;;10571459;28;20051;-74
2022/01/14 02:38:35;;;;;;;2.50;1.55;;;17.00;79.80;;;;;;10556770;28;20047;-74
2022/01/14 02:43:37;;;;;;;2.28;1.42;;;16.90;79.70;;;;;;10561138;28;20040;-74
2022/01/14 02:48:38;;;;;;;2.97;1.50;;;16.90;79.80;;;;;;10544062;28;20155;-74
2022/01/14 02:53:55;;;;;;;2.88;1.63;;;16.90;79.80;;;;;;10535258;28;20459;-74
2022/01/14 02:58:56;;;;;;;2.42;1.50;;;16.80;79.80;;;;;;10542769;28;20039;-74
2022/01/14 03:03:58;;;;;;;2.22;1.58;;;16.80;79.80;;;;;;10545369;28;20065;-74
2022/01/14 03:09:00;;;;;;;2.38;1.55;;;16.80;79.90;;;;;;10569764;28;20049;-74
2022/01/14 03:14:01;;;;;;;2.22;1.40;;;16.80;79.90;;;;;;10564480;28;20052;-73
2022/01/14 03:19:07;;;;;;;2.85;1.45;;;16.70;79.90;;;;;;10545673;28;20048;-73
2022/01/14 03:24:18;;;;;;;2.83;1.48;;;16.70;79.90;;;;;;10542665;28;20040;-74
2022/01/14 03:29:20;;;;;;;3.17;1.80;;;16.70;80.00;;;;;;10557664;28;20051;-74
2022/01/14 03:34:21;;;;;;;2.85;1.40;;;16.60;80.00;;;;;;10540060;28;20120;-74
2022/01/14 03:39:23;;;;;;;3.03;1.80;;;16.60;80.00;;;;;;10551831;28;20101;-74
2022/01/14 03:44:24;;;;;;;2.30;1.50;;;16.60;80.00;;;;;;10544877;28;20055;-74
2022/01/14 03:49:26;;;;;;;1.90;1.30;;;16.60;80.10;;;;;;10547148;28;20044;-74
2022/01/14 03:54:27;;;;;;;3.45;1.48;;;16.60;80.10;;;;;;10549893;28;20052;-74
2022/01/14 03:59:29;;;;;;;2.60;1.50;;;16.50;80.10;;;;;;10559826;28;20050;-74
2022/01/14 04:04:30;;;;;;;2.42;1.45;;;16.50;80.10;;;;;;10553514;28;20048;-74
2022/01/14 04:09:36;;;;;;;2.25;1.42;;;16.50;80.10;;;;;;10552354;28;20109;-73
2022/01/14 04:19:57;;;;;;;2.88;1.50;;;16.40;80.30;;;;;;10545624;28;20039;-74
2022/01/14 04:24:58;;;;;;;3.72;1.70;;;16.40;80.50;;;;;;10558886;28;20066;-74
2022/01/14 04:30:00;;;;;;;2.67;1.77;;;16.40;80.30;;;;;;10542195;28;20225;-74
2022/01/14 04:35:01;;;;;;;2.70;1.63;;;16.40;80.40;;;;;;10545843;28;20058;-74
2022/01/14 04:40:02;;;;;;;2.60;1.50;;;16.40;80.60;;;;;;10553265;28;20048;-74
2022/01/14 04:45:04;;;;;;;2.85;1.60;;;16.40;80.60;;;;;;10564484;28;20408;-74
2022/01/14 04:50:05;;;;;;;2.58;1.60;;;16.40;80.60;;;;;;10539566;28;20459;-74
2022/01/14 04:55:07;;;;;;;1.60;1.38;;;16.40;80.70;;;;;;10578748;28;20484;-74
2022/01/14 05:00:08;;;;;;;3.00;1.70;;;16.40;80.70;;;;;;10597469;28;20043;-74
2022/01/14 05:05:10;;;;;;;3.28;1.55;;;16.40;80.70;;;;;;10570687;28;20059;-75
2022/01/14 05:10:22;;;;;;;3.15;1.65;;;16.40;80.70;;;;;;10560574;28;20058;-74
2022/01/14 05:15:23;;;;;;;4.15;1.83;;;16.40;80.70;;;;;;10567204;28;20366;-74
2022/01/14 05:20:25;;;;;;;3.00;1.63;;;16.40;80.60;;;;;;10544838;28;20400;-74
2022/01/14 05:25:26;;;;;;;2.75;1.80;;;16.40;80.50;;;;;;10539436;28;20052;-74
2022/01/14 05:30:27;;;;;;;2.90;1.60;;;16.40;80.60;;;;;;10579846;28;20432;-74
2022/01/14 05:35:29;;;;;;;3.05;2.00;;;16.30;80.60;;;;;;10547846;28;20047;-74
2022/01/14 05:40:30;;;;;;;2.35;1.52;;;16.40;80.60;;;;;;10544967;28;20895;-74
2022/01/14 05:45:32;;;;;;;3.25;1.60;;;16.40;80.60;;;;;;10540373;27;20051;-74
2022/01/14 05:50:33;;;;;;;3.08;1.80;;;16.30;80.60;;;;;;10558227;28;20059;-74
2022/01/14 05:55:35;;;;;;;3.40;1.88;;;16.40;80.60;;;;;;10569520;28;20051;-74
2022/01/14 06:00:36;;;;;;;2.60;1.50;;;16.30;80.50;;;;;;10538898;28;20485;-74
2022/01/14 06:05:38;;;;;;;2.83;1.60;;;16.30;80.60;;;;;;10560362;28;20484;-73
2022/01/14 06:10:39;;;;;;;3.25;1.67;;;16.40;80.60;;;;;;10537623;28;20497;-74
2022/01/14 06:15:41;;;;;;;1.92;1.50;;;16.30;80.40;;;;;;10537251;28;20059;-74
2022/01/14 06:20:42;;;;;;;3.97;1.80;;;16.30;80.60;;;;;;10539965;28;20048;-74
2022/01/14 06:25:44;;;;;;;2.22;1.40;;;16.40;80.50;;;;;;10538522;28;20089;-74
2022/01/14 06:30:45;;;;;;;2.97;1.73;;;16.30;80.40;;;;;;10563306;28;20036;-75
2022/01/14 06:35:47;;;;;;;2.50;1.73;;;16.30;80.50;;;;;;10549015;28;20048;-74
2022/01/14 06:40:48;;;;;;;3.53;1.73;;;16.30;80.40;;;;;;10549387;28;20393;-74
2022/01/14 06:45:49;;;;;;;2.75;1.50;;;16.40;80.50;;;;;;10541569;28;20093;-74
2022/01/14 06:50:51;;;;;;;2.65;1.48;;;16.30;80.50;;;;;;10565263;28;20052;-75
2022/01/14 06:55:52;;;;;;;2.80;1.50;;;16.30;80.50;;;;;;10547033;28;20559;-74
2022/01/14 07:00:55;;;;;;;3.40;1.83;;;16.40;80.60;;;;;;10548083;28;20085;-74
2022/01/14 07:05:56;;;;;;;2.50;1.38;;;16.60;80.60;;;;;;10543835;28;20507;-74
2022/01/14 07:10:58;;;;;;;3.08;1.55;;;17.00;80.30;;;;;;10535418;28;20078;-75
2022/01/14 07:15:59;;;;;;;2.35;1.40;;;17.60;80.40;;;;;;10551750;28;20048;-75
2022/01/14 07:21:01;;;;;;;3.28;1.30;;;18.10;79.80;;;;;;10536165;28;20040;-76
2022/01/14 07:26:02;;;;;;;3.03;1.30;;;18.50;79.30;;;;;;10557817;28;20048;-74
2022/01/14 07:31:03;;;;;;;3.30;1.30;;;18.60;79.00;;;;;;10558973;28;20058;-76
2022/01/14 07:36:05;;;;;;;3.63;1.42;;;18.50;79.00;;;;;;10567262;28;20051;-75
2022/01/14 07:41:06;;;;;;;3.22;1.50;;;18.30;79.20;;;;;;10596945;28;20039;-75
2022/01/14 07:46:08;;;;;;;3.38;1.65;;;18.00;79.50;;;;;;10590258;28;20048;-74
2022/01/14 07:51:09;;;;;;;4.25;1.30;;;17.80;79.70;;;;;;10572628;28;20039;-74
2022/01/14 07:56:13;;;;;;;3.42;1.60;;;17.60;79.90;;;;;;10575570;28;20143;-74
2022/01/14 08:01:14;;;;;;;2.53;1.17;;;17.50;80.10;;;;;;10576690;28;20108;-74
2022/01/14 08:06:17;;;;;;;2.80;1.33;;;17.30;80.20;;;;;;10576836;28;20046;-74
2022/01/14 08:11:19;;;;;;;3.65;1.67;;;17.20;80.30;;;;;;10575330;28;20047;-74
2022/01/14 08:16:20;;;;;;;4.35;1.58;;;17.10;80.40;;;;;;10547377;28;20052;-73
2022/01/14 08:21:22;;;;;;;4.28;1.45;;;17.00;80.40;;;;;;10533723;28;20048;-73
2022/01/14 08:26:23;;;;;;;2.28;1.30;;;16.90;80.40;;;;;;10535736;28;20512;-73
2022/01/14 08:31:25;;;;;;;4.25;1.50;;;16.90;80.50;;;;;;10582333;28;20058;-74
2022/01/14 08:36:28;;;;;;;3.22;1.70;;;16.80;80.50;;;;;;10583070;28;20104;-74
2022/01/14 08:41:30;;;;;;;2.90;1.42;;;16.70;80.50;;;;;;10583730;28;20049;-73
2022/01/14 08:46:32;;;;;;;2.83;1.50;;;16.70;80.50;;;;;;10582242;28;20067;-74
2022/01/14 08:51:34;;;;;;;2.80;1.52;;;16.60;80.50;;;;;;10582938;28;20044;-74
2022/01/14 08:56:36;;;;;;;3.25;1.60;;;16.60;80.60;;;;;;10583304;28;20079;-74
2022/01/14 09:01:40;;;;;;;3.35;1.33;;;16.60;80.60;;;;;;10580973;28;20044;-74
2022/01/14 09:06:42;;;;;;;4.00;1.98;;;16.50;80.70;;;;;;10570284;28;20449;-73
2022/01/14 09:11:43;;;;;;;3.00;1.30;;;16.50;80.80;;;;;;10581741;28;20074;-74
2022/01/14 09:16:44;;;;;;;2.50;1.50;;;16.40;80.70;;;;;;10549545;28;20051;-74
2022/01/14 09:21:46;;;;;;;2.65;1.30;;;16.40;80.80;;;;;;10539889;28;20052;-74
2022/01/14 09:26:47;;;;;;;3.65;1.70;;;16.40;80.80;;;;;;10539115;28;20048;-74
2022/01/14 09:31:49;;;;;;;2.92;1.40;;;16.30;80.70;;;;;;10539324;28;20044;-74
2022/01/14 09:36:50;;;;;;;3.10;1.35;;;16.30;80.80;;;;;;10539385;28;20404;-73
2022/01/14 09:41:52;;;;;;;3.35;1.25;;;16.30;80.80;;;;;;10538529;28;20443;-74
2022/01/14 09:46:53;;;;;;;2.03;1.23;;;16.20;80.80;;;;;;10538550;28;20542;-74
2022/01/14 09:51:55;;;;;;;2.60;1.30;;;16.20;80.90;;;;;;10539442;28;20051;-72
2022/01/14 09:56:56;;;;;;;2.13;1.23;;;16.20;81.00;;;;;;10560347;28;20070;-74
2022/01/14 10:02:00;;;;;;;3.25;1.27;;;16.10;80.90;;;;;;10562847;28;20416;-73
2022/01/14 10:07:03;;;;;;;2.83;1.30;;;16.10;80.90;;;;;;10561976;28;20040;-73
2022/01/14 10:12:04;;;;;;;2.30;1.10;;;16.10;80.90;;;;;;10590618;28;20092;-74
2022/01/14 10:17:06;;;;;;;2.35;1.20;;;16.10;81.00;;;;;;10586756;28;20047;-74
2022/01/14 10:22:07;;;;;;;1.85;1.20;;;16.10;81.10;;;;;;10579379;28;20052;-73
2022/01/14 10:27:09;;;;;;;2.28;1.13;;;16.10;81.00;;;;;;10561842;28;20052;-74
2022/01/14 10:32:12;;;;;;;2.15;1.33;;;16.00;81.00;;;;;;10537263;28;20051;-74
2022/01/14 10:37:13;;;;;;;2.33;1.20;;;16.00;81.00;;;;;;10537193;28;20080;-74
2022/01/14 10:42:15;;;;;;;2.45;1.20;;;16.00;81.00;;;;;;10537148;28;20055;-73
2022/01/14 10:47:16;;;;;;;1.63;1.10;;;16.00;81.00;;;;;;10536106;28;20048;-74
2022/01/14 10:52:18;;;;;;;1.60;0.95;;;16.00;81.10;;;;;;10535757;28;20040;-74
2022/01/14 10:57:19;;;;;;;2.15;1.23;;;15.90;81.00;;;;;;10536055;28;20044;-73
2022/01/14 11:02:21;;;;;;;2.80;1.30;;;15.90;81.00;;;;;;10535961;28;20306;-74
2022/01/14 11:07:22;;;;;;;1.85;1.10;;;15.90;81.10;;;;;;10535998;28;20048;-73
2022/01/14 11:12:24;;;;;;;2.60;1.40;;;15.90;81.20;;;;;;10535437;28;20044;-73
2022/01/14 11:17:26;;;;;;;2.75;1.25;;;15.80;81.20;;;;;;10535904;28;20059;-73
2022/01/14 11:27:47;;;;;;;2.92;1.30;;;15.80;81.30;;;;;;10577634;28;20032;-73
2022/01/14 11:32:49;;;;;;;2.70;1.38;;;15.90;81.40;;;;;;10557607;28;20090;-73
2022/01/14 11:37:50;;;;;;;2.38;1.17;;;15.80;81.50;;;;;;10548235;28;20048;-73
2022/01/14 11:42:58;;;;;;;2.08;1.08;;;15.90;81.80;;;;;;10561760;28;20044;-73
2022/01/14 11:48:01;;;;;;;2.38;1.10;;;16.40;81.60;;;;;;10556630;28;20080;-73
2022/01/14 11:53:03;;;;;;;1.85;0.90;;;17.00;81.00;;;;;;10549881;28;20489;-73
2022/01/14 11:58:04;;;;;;;1.80;0.77;;;17.50;80.10;;;;;;10571993;28;20519;-74
2022/01/14 12:03:06;;;;;;;2.15;1.30;;;18.10;79.30;;;;;;10545955;28;20055;-74
2022/01/14 12:08:08;;;;;;;4.38;1.00;;;18.70;78.70;;;;;;10570985;28;20040;-74
2022/01/14 12:13:09;;;;;;;1.95;0.90;;;19.10;78.30;;;;;;10542148;28;20058;-74
2022/01/14 12:18:11;;;;;;;4.80;1.13;;;19.50;77.70;;;;;;10576768;28;20044;-73
2022/01/14 12:23:12;;;;;;;3.85;0.90;;;19.80;77.30;;;;;;10543085;28;20040;-74
2022/01/14 12:28:14;;;;;;;3.15;1.05;;;19.90;77.20;;;;;;10564651;27;20040;-73
2022/01/14 12:33:15;;;;;;;2.42;0.80;;;20.10;77.00;;;;;;10593363;28;20039;-74
2022/01/14 12:38:17;;;;;;;2.13;1.00;;;20.20;77.00;;;;;;10599022;28;20051;-74
2022/01/14 12:43:18;;;;;;;2.80;1.08;;;20.20;76.90;;;;;;10585096;28;20058;-75
2022/01/14 12:48:31;;;;;;;2.10;0.98;;;20.20;76.70;;;;;;10584060;28;20083;-74
2022/01/14 12:53:32;;;;;;;2.30;0.90;;;20.30;76.80;;;;;;10543435;28;20047;-74
2022/01/14 12:58:34;;;;;;;2.38;0.90;;;20.30;77.30;;;;;;10554995;28;20069;-74
2022/01/14 13:03:35;;;;;;;2.05;1.05;;;20.30;76.80;;;;;;10572012;27;20051;-76
2022/01/14 13:08:37;;;;;;;1.90;0.70;;;20.40;76.70;;;;;;10550498;28;20122;-76
2022/01/14 13:13:38;;;;;;;3.15;0.80;;;20.60;76.80;;;;;;10543506;28;20044;-76
2022/01/14 13:18:40;;;;;;;7.63;1.05;;;20.70;76.70;;;;;;10537690;28;20044;-77
2022/01/14 13:23:41;;;;;;;4.40;1.15;;;20.70;76.70;;;;;;10538454;28;20052;-77
2022/01/14 13:28:43;;;;;;;5.78;0.88;;;20.80;76.70;;;;;;10548324;28;20059;-75
2022/01/14 13:33:44;;;;;;;2.80;1.00;;;20.80;76.80;;;;;;10566636;28;20043;-75
2022/01/14 13:38:46;;;;;;;2.55;0.90;;;20.80;76.70;;;;;;10568192;28;20052;-74
2022/01/14 13:43:48;;;;;;;7.45;1.00;;;20.90;76.60;;;;;;10557890;28;20044;-74
